createdAt,value
2018-01-25T00:00:08.823Z,1.30
2018-01-25T00:02:37.087Z,1.30
2018-01-25T00:05:05.362Z,1.20
2018-01-25T00:07:33.687Z,1.25
2018-01-25T00:10:01.318Z,1.15
2018-01-25T00:12:29.614Z,1.00
2018-01-25T00:14:57.132Z,1.20
2018-01-25T00:17:25.410Z,1.10
2018-01-25T00:19:53.040Z,1.20
2018-01-25T00:22:20.537Z,1.27
2018-01-25T00:24:48.801Z,1.23
2018-01-25T00:27:17.149Z,1.30
2018-01-25T00:29:44.852Z,1.00
2018-01-25T00:32:12.402Z,1.00
2018-01-25T00:34:40.658Z,1.10
2018-01-25T00:37:08.167Z,1.00
2018-01-25T00:39:35.698Z,1.23
2018-01-25T00:42:03.271Z,1.37
2018-01-25T00:44:30.783Z,1.42
2018-01-25T00:46:58.336Z,1.10
2018-01-25T00:49:25.783Z,1.33
2018-01-25T00:51:53.272Z,1.33
2018-01-25T00:54:20.762Z,1.30
2018-01-25T00:56:48.244Z,1.40
2018-01-25T00:59:15.795Z,1.30
2018-01-25T01:01:43.526Z,1.42
2018-01-25T01:04:11.042Z,1.50
2018-01-25T01:06:38.526Z,1.30
2018-01-25T01:09:06.022Z,1.30
2018-01-25T01:11:33.515Z,1.55
2018-01-25T01:14:01.182Z,1.70
2018-01-25T01:16:28.808Z,1.50
2018-01-25T01:18:56.454Z,1.73
2018-01-25T01:21:24.218Z,1.60
2018-01-25T01:23:51.909Z,1.80
2018-01-25T01:26:19.410Z,1.92
2018-01-25T01:28:47.057Z,2.00
2018-01-25T01:31:14.728Z,1.85
2018-01-25T01:33:43.106Z,1.92
2018-01-25T01:36:10.645Z,1.60
2018-01-25T01:38:38.295Z,1.75
2018-01-25T01:41:06.257Z,1.55
2018-01-25T01:43:33.861Z,1.87
2018-01-25T01:46:01.603Z,2.10
2018-01-25T01:48:29.178Z,1.85
2018-01-25T01:50:56.817Z,1.95
2018-01-25T01:53:24.519Z,2.55
2018-01-25T01:55:52.130Z,2.50
2018-01-25T01:58:19.749Z,3.35
2018-01-25T02:00:47.390Z,3.28
2018-01-25T02:03:15.124Z,3.47
2018-01-25T02:05:42.801Z,4.60
2018-01-25T02:08:10.423Z,3.72
2018-01-25T02:10:38.129Z,4.37
2018-01-25T02:13:05.829Z,4.22
2018-01-25T02:15:33.426Z,5.55
2018-01-25T02:18:01.121Z,5.75
2018-01-25T02:20:28.651Z,6.20
2018-01-25T02:22:56.218Z,5.40
2018-01-25T02:25:23.862Z,6.65
2018-01-25T02:27:52.212Z,7.80
2018-01-25T02:30:19.815Z,7.32
2018-01-25T02:32:47.437Z,7.90
2018-01-25T02:35:15.040Z,8.10
2018-01-25T02:37:42.619Z,8.07
2018-01-25T02:40:10.265Z,7.93
2018-01-25T02:42:37.913Z,8.70
2018-01-25T02:45:05.530Z,8.43
2018-01-25T02:47:33.167Z,9.30
2018-01-25T02:50:00.930Z,8.77
2018-01-25T02:52:28.488Z,7.72
2018-01-25T02:54:56.238Z,7.70
2018-01-25T02:57:24.547Z,7.37
2018-01-25T02:59:52.895Z,7.12
2018-01-25T03:02:20.475Z,6.72
2018-01-25T03:04:48.136Z,6.50
2018-01-25T03:07:15.762Z,6.80
2018-01-25T03:09:43.438Z,5.60
2018-01-25T03:12:10.989Z,5.15
2018-01-25T03:14:38.565Z,5.57
2018-01-25T03:17:06.252Z,6.87
2018-01-25T03:19:34.616Z,5.25
2018-01-25T03:22:02.375Z,4.60
2018-01-25T03:24:30.006Z,5.00
2018-01-25T03:26:57.781Z,4.85
2018-01-25T03:29:25.557Z,3.97
2018-01-25T03:31:53.181Z,4.05
2018-01-25T03:34:20.761Z,3.33
2018-01-25T03:36:48.285Z,3.60
2018-01-25T03:39:16.537Z,3.55
2018-01-25T03:41:44.067Z,3.30
2018-01-25T03:44:11.574Z,3.60
2018-01-25T03:46:39.814Z,3.75
2018-01-25T03:49:07.301Z,3.67
2018-01-25T03:51:34.916Z,3.78
2018-01-25T03:54:02.562Z,4.10
2018-01-25T03:56:30.838Z,3.67
2018-01-25T03:58:58.404Z,3.28
2018-01-25T04:01:25.886Z,3.92
2018-01-25T04:03:53.374Z,3.65
2018-01-25T04:06:21.131Z,3.65
2018-01-25T04:08:48.609Z,3.30
2018-01-25T04:11:16.228Z,3.08
2018-01-25T04:13:43.978Z,3.20
2018-01-25T04:16:11.570Z,3.03
2018-01-25T04:18:39.217Z,2.72
2018-01-25T04:21:06.976Z,2.60
2018-01-25T04:23:34.638Z,2.47
2018-01-25T04:26:02.274Z,2.37
2018-01-25T04:28:29.765Z,2.80
2018-01-25T04:30:57.320Z,2.97
2018-01-25T04:33:25.743Z,2.75
2018-01-25T04:35:53.952Z,2.50
2018-01-25T04:38:21.743Z,2.50
2018-01-25T04:40:49.402Z,3.00
2018-01-25T04:43:17.023Z,2.28
2018-01-25T04:45:45.427Z,2.60
2018-01-25T04:48:13.138Z,3.45
2018-01-25T04:50:40.818Z,2.83
2018-01-25T04:53:09.242Z,3.35
2018-01-25T04:55:36.859Z,3.42
2018-01-25T04:58:05.282Z,3.30
2018-01-25T05:00:32.978Z,3.15
2018-01-25T05:03:00.551Z,4.37
2018-01-25T05:05:28.165Z,3.90
2018-01-25T05:07:55.725Z,3.28
2018-01-25T05:10:24.198Z,3.08
2018-01-25T05:12:51.900Z,3.95
2018-01-25T05:15:19.492Z,3.08
2018-01-25T05:18:01.969Z,2.62
2018-01-25T05:20:30.359Z,2.95
2018-01-25T05:22:59.374Z,2.90
2018-01-25T05:25:27.836Z,3.50
2018-01-25T05:27:55.408Z,2.75
2018-01-25T05:30:23.767Z,3.40
2018-01-25T05:32:52.170Z,2.87
2018-01-25T05:35:19.851Z,2.65
2018-01-25T05:37:48.340Z,2.35
2018-01-25T05:40:15.892Z,3.83
2018-01-25T05:42:43.459Z,2.30
2018-01-25T05:45:11.026Z,2.25
2018-01-25T05:47:38.608Z,2.25
2018-01-25T05:50:06.896Z,3.15
2018-01-25T05:52:34.577Z,2.92
2018-01-25T05:55:02.268Z,2.90
2018-01-25T05:57:30.114Z,2.65
2018-01-25T05:59:57.674Z,2.80
2018-01-25T06:02:26.198Z,2.53
2018-01-25T06:04:53.718Z,2.60
2018-01-25T06:07:21.262Z,2.55
2018-01-25T06:09:49.697Z,2.83
2018-01-25T06:12:17.415Z,2.58
2018-01-25T06:14:45.068Z,3.28
2018-01-25T06:17:12.683Z,2.85
2018-01-25T06:19:40.291Z,3.70
2018-01-25T06:22:08.919Z,2.70
2018-01-25T06:24:37.310Z,3.08
2018-01-25T06:27:04.920Z,3.30
2018-01-25T06:29:32.574Z,4.20
2018-01-25T06:32:00.168Z,3.37
2018-01-25T06:34:29.061Z,3.28
2018-01-25T06:36:56.732Z,3.50
2018-01-25T06:39:24.377Z,4.28
2018-01-25T06:41:52.169Z,3.53
2018-01-25T06:44:20.808Z,2.90
2018-01-25T06:46:49.367Z,5.50
2018-01-25T06:49:17.906Z,3.95
2018-01-25T06:51:45.681Z,4.28
2018-01-25T06:54:13.580Z,3.72
2018-01-25T06:56:42.067Z,3.45
2018-01-25T06:59:09.901Z,3.50
2018-01-25T07:01:39.301Z,4.12
2018-01-25T07:04:07.733Z,4.28
2018-01-25T07:06:36.160Z,3.53
2018-01-25T07:09:03.905Z,3.40
2018-01-25T07:11:31.764Z,3.75
2018-01-25T07:13:59.338Z,4.32
2018-01-25T07:16:27.000Z,4.18
2018-01-25T07:18:54.528Z,4.30
2018-01-25T07:21:22.137Z,4.40
2018-01-25T07:23:49.767Z,4.40
2018-01-25T07:26:17.278Z,4.93
2018-01-25T07:28:44.756Z,3.90
2018-01-25T07:31:13.035Z,4.18
2018-01-25T07:33:41.278Z,4.43
2018-01-25T07:36:08.905Z,4.37
2018-01-25T07:38:36.468Z,4.45
2018-01-25T07:41:04.046Z,4.55
2018-01-25T07:43:31.604Z,3.85
2018-01-25T07:45:59.954Z,4.60
2018-01-25T07:48:27.434Z,4.05
2018-01-25T07:50:55.284Z,4.75
2018-01-25T07:53:22.926Z,4.30
2018-01-25T07:55:50.410Z,3.80
2018-01-25T07:58:24.047Z,4.78
2018-01-25T08:00:51.579Z,4.03
2018-01-25T08:03:19.057Z,3.95
2018-01-25T08:05:46.677Z,3.40
2018-01-25T08:08:14.185Z,3.75
2018-01-25T08:10:41.734Z,3.90
2018-01-25T08:13:14.790Z,4.50
2018-01-25T08:15:42.347Z,3.70
2018-01-25T08:18:10.685Z,3.50
2018-01-25T08:20:38.961Z,3.85
2018-01-25T08:23:07.254Z,3.85
2018-01-25T08:25:34.757Z,2.95
2018-01-25T08:28:02.400Z,3.67
2018-01-25T08:30:29.918Z,4.10
2018-01-25T08:32:58.177Z,3.70
2018-01-25T08:35:25.784Z,4.10
2018-01-25T08:37:53.302Z,4.60
2018-01-25T08:40:20.908Z,4.30
2018-01-25T08:42:48.384Z,4.00
2018-01-25T08:45:15.857Z,4.37
2018-01-25T08:47:43.438Z,3.30
2018-01-25T08:50:11.779Z,3.85
2018-01-25T08:52:39.274Z,3.80
2018-01-25T08:55:07.765Z,3.55
2018-01-25T08:57:35.321Z,3.75
2018-01-25T09:00:03.638Z,3.47
2018-01-25T09:02:31.565Z,3.28
2018-01-25T09:04:59.084Z,4.20
2018-01-25T09:07:26.577Z,4.12
2018-01-25T09:09:55.172Z,4.22
2018-01-25T09:12:23.441Z,4.00
2018-01-25T09:14:50.934Z,4.65
2018-01-25T09:17:18.573Z,3.97
2018-01-25T09:19:46.061Z,4.10
2018-01-25T09:22:13.701Z,4.45
2018-01-25T09:24:41.220Z,4.15
2018-01-25T09:27:08.698Z,4.50
2018-01-25T09:29:37.040Z,4.00
2018-01-25T09:32:04.582Z,4.32
2018-01-25T09:34:32.207Z,4.28
2018-01-25T09:37:00.489Z,3.87
2018-01-25T09:39:28.155Z,5.55
2018-01-25T09:41:55.818Z,4.80
2018-01-25T09:44:23.333Z,4.15
2018-01-25T09:46:51.076Z,4.95
2018-01-25T09:49:18.762Z,4.22
2018-01-25T09:51:46.262Z,4.70
2018-01-25T09:54:13.831Z,4.30
2018-01-25T09:56:41.426Z,3.85
2018-01-25T09:59:09.096Z,3.85
2018-01-25T10:01:37.568Z,4.60
2018-01-25T10:04:05.811Z,3.47
2018-01-25T10:06:33.302Z,4.10
2018-01-25T10:09:00.862Z,3.78
2018-01-25T10:11:28.349Z,4.30
2018-01-25T10:13:56.602Z,5.18
2018-01-25T10:16:25.004Z,3.95
2018-01-25T10:18:52.510Z,4.00
2018-01-25T10:21:19.993Z,3.70
2018-01-25T10:23:48.415Z,3.87
2018-01-25T10:26:15.971Z,4.32
2018-01-25T10:28:43.591Z,4.20
2018-01-25T10:31:11.287Z,4.03
2018-01-25T10:33:38.810Z,3.45
2018-01-25T10:36:06.552Z,3.47
2018-01-25T10:38:34.889Z,3.55
2018-01-25T10:41:03.329Z,3.70
2018-01-25T10:43:30.918Z,3.70
2018-01-25T10:45:59.400Z,3.70
2018-01-25T10:48:26.926Z,3.58
2018-01-25T10:50:54.479Z,4.00
2018-01-25T10:53:22.093Z,4.00
2018-01-25T10:55:50.424Z,3.42
2018-01-25T10:58:17.938Z,4.55
2018-01-25T11:00:51.173Z,3.30
2018-01-25T11:03:19.007Z,3.70
2018-01-25T11:05:47.299Z,3.33
2018-01-25T11:08:14.834Z,4.25
2018-01-25T11:10:42.371Z,3.60
2018-01-25T11:13:10.022Z,4.65
2018-01-25T11:15:37.639Z,4.15
2018-01-25T11:18:05.344Z,4.43
2018-01-25T11:20:32.976Z,3.45
2018-01-25T11:23:00.643Z,3.58
2018-01-25T11:25:28.242Z,4.90
2018-01-25T11:27:55.819Z,4.28
2018-01-25T11:30:23.329Z,3.90
2018-01-25T11:32:50.834Z,3.70
2018-01-25T11:35:19.153Z,3.80
2018-01-25T11:37:47.574Z,3.20
2018-01-25T11:40:15.091Z,3.67
2018-01-25T11:42:42.582Z,3.78
2018-01-25T11:45:10.105Z,4.32
2018-01-25T11:47:37.593Z,3.60
2018-01-25T11:50:05.334Z,4.12
2018-01-25T11:52:32.956Z,4.60
2018-01-25T11:55:00.462Z,2.90
2018-01-25T11:57:28.134Z,3.53
2018-01-25T11:59:55.872Z,3.58
2018-01-25T12:02:23.377Z,3.47
2018-01-25T12:04:51.007Z,3.15
2018-01-25T12:07:18.553Z,3.35
2018-01-25T12:09:46.117Z,3.65
2018-01-25T12:12:13.726Z,4.22
2018-01-25T12:14:42.245Z,3.67
2018-01-25T12:17:09.915Z,3.80
2018-01-25T12:19:38.326Z,3.50
2018-01-25T12:22:05.943Z,5.00
2018-01-25T12:24:33.520Z,3.87
2018-01-25T12:27:01.064Z,3.47
2018-01-25T12:29:29.438Z,3.75
2018-01-25T12:31:57.778Z,3.08
2018-01-25T12:34:25.322Z,3.28
2018-01-25T12:36:53.083Z,3.17
2018-01-25T12:39:20.659Z,3.05
2018-01-25T12:41:48.914Z,3.67
2018-01-25T12:44:16.426Z,4.10
2018-01-25T12:46:43.922Z,3.55
2018-01-25T12:49:12.321Z,2.90
2018-01-25T12:51:40.232Z,4.18
2018-01-25T12:54:07.888Z,3.78
2018-01-25T12:56:36.149Z,3.80
2018-01-25T12:59:03.710Z,3.78
2018-01-25T13:01:32.026Z,4.30
2018-01-25T13:04:00.478Z,3.70
2018-01-25T13:06:27.982Z,5.37
2018-01-25T13:08:55.501Z,3.45
2018-01-25T13:11:22.998Z,5.35
2018-01-25T13:13:50.826Z,3.60
2018-01-25T13:16:18.334Z,3.10
2018-01-25T13:18:45.823Z,3.78
2018-01-25T13:21:14.310Z,4.20
2018-01-25T13:23:42.553Z,4.15
2018-01-25T13:26:10.170Z,3.33
2018-01-25T13:28:37.721Z,3.42
2018-01-25T13:31:05.214Z,4.95
2018-01-25T13:33:39.374Z,4.03
2018-01-25T13:36:08.532Z,5.07
2018-01-25T13:38:36.023Z,4.32
2018-01-25T13:41:04.370Z,4.35
2018-01-25T13:43:31.943Z,3.10
2018-01-25T13:45:59.465Z,3.85
2018-01-25T13:48:27.140Z,3.50
2018-01-25T13:50:54.790Z,4.57
2018-01-25T13:53:22.317Z,3.87
2018-01-25T13:55:49.866Z,3.75
2018-01-25T13:58:18.126Z,4.15
2018-01-25T14:00:45.711Z,4.15
2018-01-25T14:03:13.978Z,4.85
2018-01-25T14:05:42.299Z,3.85
2018-01-25T14:08:09.850Z,4.80
2018-01-25T14:10:37.485Z,4.07
2018-01-25T14:13:05.733Z,4.75
2018-01-25T14:15:33.225Z,3.65
2018-01-25T14:18:00.741Z,3.83
2018-01-25T14:20:28.380Z,5.22
2018-01-25T14:22:56.859Z,4.75
2018-01-25T14:25:24.615Z,4.72
2018-01-25T14:27:52.733Z,4.05
2018-01-25T14:30:21.170Z,3.97
2018-01-25T14:32:48.834Z,4.68
2018-01-25T14:35:16.491Z,4.50
2018-01-25T14:37:44.074Z,3.67
2018-01-25T14:40:11.738Z,6.68
2018-01-25T14:42:39.307Z,5.30
2018-01-25T14:45:06.798Z,4.78
2018-01-25T14:47:34.394Z,5.37
2018-01-25T14:50:02.017Z,4.00
2018-01-25T14:52:29.506Z,4.32
2018-01-25T14:54:57.216Z,4.55
2018-01-25T14:57:25.167Z,4.32
2018-01-25T14:59:52.662Z,4.05
2018-01-25T15:02:22.265Z,5.30
2018-01-25T15:04:49.782Z,4.78
2018-01-25T15:07:17.278Z,5.85
2018-01-25T15:09:45.556Z,5.37
2018-01-25T15:12:13.066Z,4.95
2018-01-25T15:14:41.269Z,5.57
2018-01-25T15:17:08.775Z,4.40
2018-01-25T15:19:37.007Z,4.65
2018-01-25T15:22:04.481Z,3.78
2018-01-25T15:24:33.065Z,3.58
2018-01-25T15:27:01.487Z,3.85
2018-01-25T15:29:29.014Z,3.47
2018-01-25T15:31:56.563Z,3.42
2018-01-25T15:34:24.918Z,3.55
2018-01-25T15:36:53.012Z,4.32
2018-01-25T15:39:21.493Z,3.60
2018-01-25T15:41:50.038Z,3.37
2018-01-25T15:44:17.620Z,3.72
2018-01-25T15:46:45.761Z,3.62
2018-01-25T15:49:13.305Z,4.00
2018-01-25T15:51:42.423Z,3.17
2018-01-25T15:54:11.094Z,4.07
2018-01-25T15:56:38.748Z,3.85
2018-01-25T15:59:07.374Z,3.25
2018-01-25T16:01:35.006Z,4.32
2018-01-25T16:04:03.171Z,3.62
2018-01-25T16:06:30.649Z,4.82
2018-01-25T16:08:58.334Z,4.80
2018-01-25T16:11:25.830Z,4.70
2018-01-25T16:13:53.527Z,4.72
2018-01-25T16:16:21.168Z,4.35
2018-01-25T16:18:48.667Z,3.97
2018-01-25T16:21:16.254Z,5.60
2018-01-25T16:23:44.187Z,4.87
2018-01-25T16:26:11.671Z,5.03
2018-01-25T16:28:40.122Z,5.03
2018-01-25T16:31:07.717Z,6.05
2018-01-25T16:33:36.003Z,4.90
2018-01-25T16:36:04.327Z,4.40
2018-01-25T16:38:32.072Z,5.45
2018-01-25T16:40:59.589Z,4.65
2018-01-25T16:43:27.870Z,4.55
2018-01-25T16:45:56.318Z,4.95
2018-01-25T16:48:23.885Z,4.70
2018-01-25T16:50:51.409Z,4.18
2018-01-25T16:53:18.981Z,4.80
2018-01-25T16:55:46.521Z,6.12
2018-01-25T16:58:14.911Z,4.95
2018-01-25T17:00:43.694Z,5.47
2018-01-25T17:03:12.790Z,5.28
2018-01-25T17:05:40.793Z,5.78
2018-01-25T17:08:08.382Z,6.93
2018-01-25T17:10:37.219Z,4.45
2018-01-25T17:13:05.022Z,5.28
2018-01-25T17:15:32.576Z,5.10
2018-01-25T17:18:00.058Z,5.70
2018-01-25T17:20:28.302Z,5.68
2018-01-25T17:22:55.833Z,4.30
2018-01-25T17:25:23.314Z,6.05
2018-01-25T17:27:51.809Z,5.35
2018-01-25T17:30:19.393Z,5.65
2018-01-25T17:32:46.923Z,5.20
2018-01-25T17:35:14.457Z,5.62
2018-01-25T17:37:43.906Z,5.15
2018-01-25T17:40:11.587Z,4.60
2018-01-25T17:42:39.171Z,4.93
2018-01-25T17:45:06.948Z,6.37
2018-01-25T17:47:34.609Z,5.32
2018-01-25T17:50:02.118Z,3.95
2018-01-25T17:52:30.604Z,4.95
2018-01-25T17:54:58.366Z,4.82
2018-01-25T17:57:26.041Z,4.35
2018-01-25T17:59:53.581Z,4.82
2018-01-25T18:02:21.967Z,4.00
2018-01-25T18:04:51.938Z,4.53
2018-01-25T18:07:20.413Z,5.03
2018-01-25T18:09:48.518Z,5.07
2018-01-25T18:12:18.362Z,5.32
2018-01-25T18:14:46.237Z,5.60
2018-01-25T18:17:15.194Z,5.50
2018-01-25T18:19:45.741Z,5.62
2018-01-25T18:22:16.039Z,5.37
2018-01-25T18:24:43.707Z,6.10
2018-01-25T18:27:12.304Z,5.97
2018-01-25T18:29:40.964Z,5.95
2018-01-25T18:32:10.988Z,5.30
2018-01-25T18:34:42.009Z,7.12
2018-01-25T18:37:11.434Z,6.57
2018-01-25T18:39:40.698Z,7.90
2018-01-25T18:42:09.052Z,7.10
2018-01-25T18:44:36.841Z,7.87
2018-01-25T18:47:04.677Z,8.57
2018-01-25T18:49:32.403Z,7.82
2018-01-25T18:52:00.034Z,7.25
2018-01-25T18:54:27.640Z,9.05
2018-01-25T18:56:56.205Z,8.93
2018-01-25T18:59:23.755Z,8.38
2018-01-25T19:01:51.303Z,8.77
2018-01-25T19:04:18.837Z,9.70
2018-01-25T19:06:47.937Z,9.20
2018-01-25T19:09:17.810Z,11.60
2018-01-25T19:11:46.251Z,9.43
2018-01-25T19:14:14.465Z,10.13
2018-01-25T19:16:43.150Z,10.13
2018-01-25T19:19:11.552Z,9.70
2018-01-25T19:21:39.126Z,10.00
2018-01-25T19:24:06.836Z,9.57
2018-01-25T19:26:35.230Z,9.90
2018-01-25T19:29:02.835Z,10.27
2018-01-25T19:31:30.424Z,11.30
2018-01-25T19:33:58.233Z,11.50
2018-01-25T19:36:25.930Z,11.43
2018-01-25T19:38:53.686Z,11.82
2018-01-25T19:41:21.355Z,11.57
2018-01-25T19:43:48.879Z,11.30
2018-01-25T19:46:17.318Z,12.75
2018-01-25T19:48:45.769Z,11.40
2018-01-25T19:51:16.239Z,10.82
2018-01-25T19:53:44.620Z,11.68
2018-01-25T19:56:12.293Z,11.30
2018-01-25T19:58:40.008Z,13.60
2018-01-25T20:01:07.647Z,11.27
2018-01-25T20:06:20.196Z,11.80
2018-01-25T20:08:50.415Z,13.45
2018-01-25T20:11:20.406Z,11.88
2018-01-25T20:13:47.886Z,12.15
2018-01-25T20:16:15.510Z,12.75
2018-01-25T20:21:21.923Z,11.90
2018-01-25T20:23:49.413Z,11.90
2018-01-25T20:26:16.907Z,13.68
2018-01-25T20:28:45.198Z,12.65
2018-01-25T20:31:12.694Z,11.75
2018-01-25T20:33:47.173Z,12.45
2018-01-25T20:36:14.870Z,12.23
2018-01-25T20:38:43.244Z,12.80
2018-01-25T20:41:10.734Z,10.48
2018-01-25T20:43:41.119Z,11.02
2018-01-25T20:46:09.175Z,11.12
2018-01-25T20:48:36.658Z,11.57
2018-01-25T20:51:04.407Z,11.65
2018-01-25T20:53:31.982Z,12.77
2018-01-25T20:55:59.517Z,12.27
2018-01-25T20:58:27.190Z,12.80
2018-01-25T21:00:54.711Z,11.65
2018-01-25T21:03:22.718Z,13.32
2018-01-25T21:05:51.117Z,11.52
2018-01-25T21:08:21.617Z,11.45
2018-01-25T21:10:50.377Z,11.70
2018-01-25T21:13:19.114Z,12.07
2018-01-25T21:15:59.577Z,12.27
2018-01-25T21:18:28.437Z,12.07
2018-01-25T21:20:55.993Z,12.73
2018-01-25T21:23:24.755Z,11.80
2018-01-25T21:25:57.983Z,13.50
2018-01-25T21:28:26.282Z,12.65
2018-01-25T21:30:53.919Z,12.00
2018-01-25T21:33:21.481Z,11.77
2018-01-25T21:35:48.994Z,13.23
2018-01-25T21:38:16.672Z,10.98
2018-01-25T21:40:44.976Z,11.60
2018-01-25T21:43:12.604Z,13.30
2018-01-25T21:45:43.225Z,11.07
2018-01-25T21:48:11.110Z,11.27
2018-01-25T21:50:38.935Z,12.23
2018-01-25T21:53:06.780Z,12.43
2018-01-25T21:55:42.025Z,11.50
2018-01-25T21:58:09.963Z,12.68
2018-01-25T22:00:39.935Z,11.73
2018-01-25T22:03:09.746Z,12.75
2018-01-25T22:05:43.854Z,12.00
2018-01-25T22:08:12.623Z,11.20
2018-01-25T22:10:40.210Z,11.25
2018-01-25T22:13:08.515Z,10.35
2018-01-25T22:15:36.081Z,11.82
2018-01-25T22:18:03.585Z,11.45
2018-01-25T22:20:31.279Z,12.10
2018-01-25T22:22:59.231Z,12.05
2018-01-25T22:25:29.164Z,10.85
2018-01-25T22:27:56.887Z,12.80
2018-01-25T22:30:24.452Z,11.43
2018-01-25T22:32:52.152Z,12.30
2018-01-25T22:35:19.775Z,11.30
2018-01-25T22:37:48.283Z,12.40
2018-01-25T22:40:26.701Z,12.68
2018-01-25T22:42:54.412Z,12.00
2018-01-25T22:45:21.958Z,12.45
2018-01-25T22:47:50.390Z,13.48
2018-01-25T22:50:18.121Z,11.95
2018-01-25T22:52:46.857Z,13.73
2018-01-25T22:55:15.676Z,12.82
2018-01-25T22:57:43.688Z,13.70
2018-01-25T23:00:28.575Z,13.40
2018-01-25T23:02:56.607Z,11.48
2018-01-25T23:05:24.179Z,12.95
2018-01-25T23:07:51.665Z,12.20
2018-01-25T23:10:19.149Z,12.85
2018-01-25T23:12:47.430Z,12.52
2018-01-25T23:15:17.033Z,11.57
2018-01-25T23:17:45.353Z,11.65
2018-01-25T23:20:12.994Z,14.45
2018-01-25T23:22:40.585Z,13.90
2018-01-25T23:25:08.124Z,13.25
2018-01-25T23:27:35.744Z,13.82
2018-01-25T23:30:04.265Z,14.00
2018-01-25T23:32:31.882Z,13.45
2018-01-25T23:34:59.513Z,12.40
2018-01-25T23:37:27.110Z,14.00
2018-01-25T23:39:54.831Z,13.43
2018-01-25T23:42:22.455Z,14.38
2018-01-25T23:44:50.117Z,15.07
2018-01-25T23:47:18.551Z,14.07
2018-01-25T23:49:46.178Z,15.30
2018-01-25T23:52:13.806Z,15.10
2018-01-25T23:54:41.381Z,14.77
2018-01-25T23:57:09.756Z,13.50
2018-01-25T23:59:38.115Z,15.18
